Time;durP1;ratioP1;P1;durP2;ratioP2;P2;SDS_P1;SDS_P2;PMS_P1;PMS_P2;Temp;Humidity;BMP_temperature;BMP_pressure;BME280_temperature;BME280_humidity;BME280_pressure;Samples;Min_cycle;Max_cycle;Signal;HPM_P1;HPM_P2
2021/05/17 00:00:50;;;;;;;10.72;4.92;;;;;;;17.59;66.32;99463.92;1780338;80;20929;-72
2021/05/17 00:03:17;;;;;;;8.88;4.83;;;;;;;17.61;66.17;99467.75;1780420;80;20890;-71
2021/05/17 00:05:44;;;;;;;12.35;5.47;;;;;;;17.65;66.10;99471.70;1780417;80;21632;-72
2021/05/17 00:08:12;;;;;;;9.50;5.65;;;;;;;17.69;66.76;99468.23;1780259;80;20915;-72
2021/05/17 00:10:39;;;;;;;14.45;5.85;;;;;;;17.71;66.23;99481.64;1780285;80;20894;-73
2021/05/17 00:13:06;;;;;;;10.88;5.35;;;;;;;17.72;66.27;99479.34;1780421;80;21001;-74
2021/05/17 00:15:33;;;;;;;7.22;4.60;;;;;;;17.70;66.18;99477.35;1780364;80;21455;-73
2021/05/17 00:18:02;;;;;;;8.00;4.87;;;;;;;17.67;65.71;99474.19;1780422;80;21192;-74
2021/05/17 00:20:31;;;;;;;9.28;4.47;;;;;;;17.64;65.98;99476.69;1780260;80;20886;-73
2021/05/17 00:22:58;;;;;;;12.73;4.90;;;;;;;17.63;66.04;99468.41;1780552;80;20878;-72
2021/05/17 00:25:27;;;;;;;7.97;5.10;;;;;;;17.61;66.20;99465.09;1780370;80;21028;-73
2021/05/17 00:27:57;;;;;;;13.45;5.12;;;;;;;17.61;66.13;99485.80;1780463;80;20977;-72
2021/05/17 00:30:29;;;;;;;7.05;4.95;;;;;;;17.64;66.03;99495.23;1780376;80;20989;-72
2021/05/17 00:32:58;;;;;;;8.20;5.42;;;;;;;17.66;65.86;99498.56;1780307;80;20898;-71
2021/05/17 00:35:25;;;;;;;15.32;5.55;;;;;;;17.67;66.31;99497.55;1780388;80;20966;-73
2021/05/17 00:37:52;;;;;;;10.68;5.60;;;;;;;17.67;66.04;99504.17;1780344;80;21007;-72
2021/05/17 00:40:20;;;;;;;20.80;6.85;;;;;;;17.66;66.49;99513.64;1780413;80;20890;-72
2021/05/17 00:42:48;;;;;;;9.73;4.78;;;;;;;17.65;66.53;99518.59;1780469;80;21064;-72
2021/05/17 00:45:16;;;;;;;9.98;5.60;;;;;;;17.66;66.35;99518.95;1780306;80;20965;-71
2021/05/17 00:47:47;;;;;;;7.40;5.00;;;;;;;17.67;66.32;99520.59;1780292;80;20906;-73
2021/05/17 00:50:18;;;;;;;16.65;6.70;;;;;;;17.68;66.74;99503.20;1780279;80;21005;-71
2021/05/17 00:52:46;;;;;;;11.93;5.47;;;;;;;17.69;67.02;99504.84;1780567;80;20910;-72
2021/05/17 00:55:14;;;;;;;10.30;5.50;;;;;;;17.71;67.57;99512.64;1780410;80;21633;-73
2021/05/17 00:57:43;;;;;;;14.25;6.22;;;;;;;17.73;67.93;99519.94;1780346;80;21454;-72
2021/05/17 01:00:14;;;;;;;18.05;6.28;;;;;;;17.74;68.65;99521.11;1780256;80;20989;-72
2021/05/17 01:02:49;;;;;;;11.60;5.92;;;;;;;17.71;68.65;99533.35;1780255;80;20878;-73
2021/05/17 01:05:21;;;;;;;12.10;5.83;;;;;;;17.68;68.63;99562.86;1777557;80;20925;-74
2021/05/17 01:07:50;;;;;;;16.50;6.95;;;;;;;17.66;68.37;99596.66;1780355;80;21407;-72
2021/05/17 01:10:20;;;;;;;19.98;7.42;;;;;;;17.65;68.80;99647.20;1780239;80;20871;-72
2021/05/17 01:12:48;;;;;;;21.62;5.10;;;;;;;17.58;69.35;99652.31;1780227;80;20915;-74
2021/05/17 01:15:18;;;;;;;14.98;5.75;;;;;;;17.56;67.95;99618.03;1780231;80;20953;-72
2021/05/17 01:17:45;;;;;;;13.83;5.70;;;;;;;17.68;67.50;99617.22;1780476;80;20950;-73
2021/05/17 01:20:18;;;;;;;17.57;5.67;;;;;;;17.83;66.40;99616.12;1780381;80;21173;-73
2021/05/17 01:24:09;;;;;;;14.35;5.08;;;;;;;17.95;65.96;99621.93;1780376;80;20966;-73
2021/05/17 01:25:24;;;;;;;8.83;5.05;;;;;;;18.04;65.98;99614.31;1747287;80;20906;-73
2021/05/17 01:27:51;;;;;;;9.00;4.78;;;;;;;18.08;65.66;99635.55;1751937;80;20974;-73
2021/05/17 01:30:20;;;;;;;9.03;4.90;;;;;;;18.09;65.80;99631.88;1780425;80;21557;-73
2021/05/17 01:32:51;;;;;;;10.75;4.50;;;;;;;18.09;66.07;99625.75;1780406;80;21128;-72
2021/05/17 01:35:21;;;;;;;15.98;3.85;;;;;;;18.09;65.97;99596.56;1780276;80;20878;-72
2021/05/17 01:37:48;;;;;;;9.88;3.65;;;;;;;18.05;66.04;99606.66;1780230;80;20879;-73
2021/05/17 01:40:19;;;;;;;7.30;3.60;;;;;;;18.03;66.13;99604.70;1780168;80;20974;-73
2021/05/17 01:42:46;;;;;;;7.70;3.77;;;;;;;18.00;66.43;99563.89;1780241;80;21423;-72
2021/05/17 01:45:13;;;;;;;10.90;4.85;;;;;;;17.97;66.81;99539.86;1780262;80;21781;-72
2021/05/17 01:47:47;;;;;;;17.40;6.53;;;;;;;17.91;67.13;99499.40;1780238;80;20917;-73
2021/05/17 01:50:16;;;;;;;16.32;7.65;;;;;;;17.85;67.71;99450.17;1782225;80;20922;-73
2021/05/17 01:52:45;;;;;;;19.48;8.18;;;;;;;17.73;68.05;99459.77;1782948;80;21474;-72
2021/05/17 01:55:13;;;;;;;16.70;8.63;;;;;;;17.64;68.47;99446.19;1782986;80;20997;-73
2021/05/17 01:57:40;;;;;;;16.67;7.40;;;;;;;17.57;68.88;99434.60;1782958;80;21779;-73
2021/05/17 02:00:12;;;;;;;15.53;8.88;;;;;;;17.52;69.47;99476.66;1754556;80;21346;-73
2021/05/17 02:02:42;;;;;;;15.65;9.23;;;;;;;17.43;69.66;99486.93;1783192;80;20902;-73
2021/05/17 02:05:12;;;;;;;17.80;10.48;;;;;;;17.33;70.14;99482.63;1782297;80;20922;-73
2021/05/17 02:07:39;;;;;;;23.27;11.18;;;;;;;17.27;70.74;99433.42;1783060;80;21423;-72
2021/05/17 02:10:07;;;;;;;16.48;9.10;;;;;;;17.23;71.63;99426.32;1783066;80;21071;-73
2021/05/17 02:12:35;;;;;;;21.55;12.13;;;;;;;17.22;72.03;99432.59;1782877;80;21422;-72
2021/05/17 02:15:16;;;;;;;20.27;12.30;;;;;;;17.19;72.15;99419.19;1782961;80;21502;-71
2021/05/17 02:17:46;;;;;;;18.07;11.73;;;;;;;17.15;72.11;99397.98;1782941;80;21029;-73
2021/05/17 02:20:17;;;;;;;19.30;11.10;;;;;;;17.10;72.10;99383.59;1779904;80;21005;-72
2021/05/17 02:22:45;;;;;;;15.63;9.15;;;;;;;17.06;72.29;99400.80;1782283;80;21097;-71
2021/05/17 02:25:18;;;;;;;16.85;8.78;;;;;;;17.00;72.36;99389.02;1755816;80;20926;-72
2021/05/17 02:27:45;;;;;;;11.50;6.90;;;;;;;16.93;72.45;99370.31;1783273;80;20962;-73
2021/05/17 02:30:15;;;;;;;14.20;5.03;;;;;;;16.88;72.66;99358.57;1783251;80;21523;-73
2021/05/17 02:32:43;;;;;;;9.60;5.28;;;;;;;16.86;72.61;99365.84;1782965;80;20940;-73
2021/05/17 02:35:13;;;;;;;5.83;4.40;;;;;;;16.87;72.65;99399.27;1783118;80;21102;-73
2021/05/17 02:37:40;;;;;;;5.75;4.45;;;;;;;16.91;72.57;99429.73;1783033;80;20925;-72
2021/05/17 02:40:10;;;;;;;11.10;4.62;;;;;;;16.93;72.10;99444.97;1782934;80;20858;-73
2021/05/17 02:42:38;;;;;;;7.85;4.40;;;;;;;16.93;72.17;99440.49;1782977;80;20906;-73
2021/05/17 02:45:07;;;;;;;8.28;4.45;;;;;;;16.97;72.38;99445.80;1783101;80;21505;-73
2021/05/17 02:47:35;;;;;;;15.18;5.55;;;;;;;17.02;72.48;99443.17;1783318;80;21047;-73
2021/05/17 02:50:04;;;;;;;10.15;5.50;;;;;;;17.06;72.81;99446.66;1778998;80;21024;-72
2021/05/17 02:52:32;;;;;;;9.83;5.60;;;;;;;17.11;73.57;99449.63;1774536;80;20883;-74
2021/05/17 02:55:08;;;;;;;4.62;4.10;;;;;;;17.16;73.83;99466.36;1774667;80;20926;-73
2021/05/17 02:57:50;;;;;;;11.45;5.60;;;;;;;17.19;73.96;99475.33;1752687;80;21005;-75
2021/05/17 03:00:22;;;;;;;7.62;4.42;;;;;;;17.26;74.01;99483.45;1752462;80;21106;-73
2021/05/17 03:03:59;;;;;;;8.60;5.35;;;;;;;17.40;73.97;99476.98;1776708;79;23170;-73
2021/05/17 03:06:40;;;;;;;12.50;4.92;;;;;;;17.44;74.10;99464.75;1720239;82;21005;-73
2021/05/17 03:09:10;;;;;;;8.60;4.40;;;;;;;17.49;74.28;99451.83;1749360;82;21110;-73
2021/05/17 03:11:47;;;;;;;10.15;3.80;;;;;;;17.54;74.33;99441.55;1749158;81;20946;-74
2021/05/17 03:14:17;;;;;;;7.95;3.30;;;;;;;17.60;72.95;99443.53;1749346;82;20894;-72
2021/05/17 03:16:47;;;;;;;9.05;3.10;;;;;;;17.65;72.11;99437.23;1748923;82;20899;-73
2021/05/17 03:19:15;;;;;;;7.72;3.65;;;;;;;17.72;71.40;99428.96;1720183;82;20930;-71
2021/05/17 03:21:43;;;;;;;6.60;4.00;;;;;;;17.83;71.52;99429.14;1749336;82;21001;-71
2021/05/17 03:24:11;;;;;;;10.25;4.67;;;;;;;17.98;71.86;99467.22;1749228;81;21045;-72
2021/05/17 03:26:38;;;;;;;4.60;3.00;;;;;;;18.15;72.30;99493.23;1749325;80;20922;-72
2021/05/17 03:29:05;;;;;;;7.95;4.20;;;;;;;18.25;70.36;99507.64;1749287;82;20942;-71
2021/05/17 03:31:32;;;;;;;10.98;3.60;;;;;;;18.31;69.29;99534.02;1749296;80;20990;-73
2021/05/17 03:33:59;;;;;;;7.20;3.92;;;;;;;18.34;68.25;99528.36;1749301;82;21506;-73
2021/05/17 03:36:26;;;;;;;8.45;4.22;;;;;;;18.35;67.45;99549.94;1749365;82;20874;-72
2021/05/17 03:38:53;;;;;;;7.35;4.40;;;;;;;18.39;67.65;99567.20;1749207;80;20918;-73
2021/05/17 03:41:20;;;;;;;7.30;3.67;;;;;;;18.43;67.60;99544.12;1749346;82;21491;-72
2021/05/17 03:43:47;;;;;;;5.33;3.75;;;;;;;18.51;68.17;99470.75;1749382;81;20914;-73
2021/05/17 03:46:14;;;;;;;10.75;4.08;;;;;;;18.55;68.24;99410.49;1749310;82;22626;-74
2021/05/17 03:48:44;;;;;;;6.75;3.80;;;;;;;18.52;67.49;99434.75;1749165;82;21021;-73
2021/05/17 03:51:11;;;;;;;8.88;3.72;;;;;;;18.59;67.60;99460.11;1749441;82;21063;-73
2021/05/17 03:53:39;;;;;;;7.37;3.75;;;;;;;18.66;67.56;99445.13;1749182;82;20934;-74
2021/05/17 03:56:06;;;;;;;4.85;3.70;;;;;;;18.76;67.74;99407.22;1749424;80;20905;-73
2021/05/17 03:58:34;;;;;;;8.15;4.10;;;;;;;18.84;67.55;99378.50;1749344;82;21090;-73
2021/05/17 04:01:00;;;;;;;12.20;4.22;;;;;;;18.93;67.28;99390.72;1749224;82;20978;-72
2021/05/17 04:03:28;;;;;;;11.78;4.78;;;;;;;19.03;66.93;99410.40;1749639;81;21439;-73
2021/05/17 04:06:17;;;;;;;20.32;6.15;;;;;;;19.09;66.15;99434.95;1750036;82;20890;-73
2021/05/17 04:13:54;;;;;;;14.68;5.67;;;;;;;19.04;65.46;99491.28;1749805;81;20970;-72
2021/05/17 04:16:21;;;;;;;17.57;5.65;;;;;;;19.09;65.76;99495.25;1749532;82;20977;-76
2021/05/17 04:18:48;;;;;;;26.48;7.50;;;;;;;19.11;66.39;99505.20;1749489;82;20891;-72
2021/05/17 04:21:15;;;;;;;38.95;9.45;;;;;;;19.06;67.39;99463.21;1749504;80;20902;-71
2021/05/17 04:23:42;;;;;;;29.12;10.72;;;;;;;18.93;69.00;99379.27;1749171;81;21825;-71
2021/05/17 04:26:09;;;;;;;26.82;9.43;;;;;;;18.75;69.67;99358.27;1749350;80;20918;-73
2021/05/17 04:28:36;;;;;;;36.68;8.90;;;;;;;18.57;70.02;99369.99;1749452;81;20903;-78
2021/05/17 04:31:03;;;;;;;46.08;10.68;;;;;;;18.44;70.56;99371.06;1749562;81;21021;-80
2021/05/17 04:33:30;;;;;;;41.80;9.68;;;;;;;18.36;70.98;99355.16;1749432;80;21005;-81
2021/05/17 04:35:57;;;;;;;46.25;10.55;;;;;;;18.32;71.26;99351.20;1722222;82;21564;-77
2021/05/17 04:38:24;;;;;;;55.28;11.33;;;;;;;18.31;71.55;99341.09;1749363;81;20942;-77
2021/05/17 04:40:52;;;;;;;63.42;11.97;;;;;;;18.30;71.59;99328.02;1749515;81;20942;-80
2021/05/17 04:43:19;;;;;;;66.22;11.35;;;;;;;18.32;71.49;99325.51;1749504;82;20938;-80
2021/05/17 04:45:46;;;;;;;72.27;14.50;;;;;;;18.37;71.12;99311.20;1749542;81;20883;-79
2021/05/17 04:48:13;;;;;;;83.05;14.10;;;;;;;18.47;70.08;99292.89;1749938;80;21147;-79
2021/05/17 04:50:41;;;;;;;66.17;14.73;;;;;;;18.58;69.48;99281.86;1749369;80;20977;-80
2021/05/17 04:53:10;;;;;;;78.80;15.25;;;;;;;18.75;68.95;99271.45;1749503;82;20936;-79
2021/05/17 04:55:38;;;;;;;76.72;15.70;;;;;;;18.91;69.24;99267.04;1749333;82;20910;-79
2021/05/17 04:58:08;;;;;;;81.82;16.48;;;;;;;19.14;69.08;99277.14;1749560;80;21486;-81
2021/05/17 05:00:33;;;;;;;79.50;16.97;;;;;;;19.35;66.95;99302.19;1749305;80;21095;-78
2021/05/17 05:03:00;;;;;;;84.90;17.37;;;;;;;19.55;66.35;99281.20;1749181;80;21024;-79
2021/05/17 05:05:29;;;;;;;106.40;17.98;;;;;;;19.75;65.15;99290.83;1749384;81;20922;-78
2021/05/17 05:07:57;;;;;;;95.60;15.75;;;;;;;19.91;64.47;99301.27;1749534;82;20875;-80
2021/05/17 05:10:24;;;;;;;96.20;16.87;;;;;;;20.03;64.34;99312.25;1749479;81;21462;-83
2021/05/17 05:12:52;;;;;;;97.25;19.17;;;;;;;20.13;63.02;99313.31;1749519;82;21092;-81
2021/05/17 05:15:19;;;;;;;91.75;17.75;;;;;;;20.25;62.04;99330.44;1749612;81;20902;-82
2021/05/17 05:17:46;;;;;;;106.80;16.20;;;;;;;20.55;61.91;99334.38;1749458;81;20921;-79
2021/05/17 05:20:15;;;;;;;91.45;18.05;;;;;;;20.93;60.08;99350.98;1749631;81;20962;-81
2021/05/17 05:22:42;;;;;;;104.03;21.00;;;;;;;21.49;58.59;99374.27;1749488;80;20950;-80
2021/05/17 05:25:10;;;;;;;110.20;20.65;;;;;;;22.05;56.23;99399.56;1749590;81;21050;-80
2021/05/17 05:27:47;;;;;;;98.27;20.30;;;;;;;22.65;59.67;99433.27;1749332;80;20937;-79
2021/05/17 05:32:56;;;;;;;77.82;17.87;;;;;;;23.24;58.82;99459.10;1749252;80;20938;-81
2021/05/17 05:35:18;;;;;;;64.60;15.10;;;;;;;23.49;58.08;99456.66;1748592;82;20925;-82
2021/05/17 05:37:45;;;;;;;60.48;15.80;;;;;;;23.82;57.69;99450.52;1749634;81;21054;-81
2021/05/17 05:40:13;;;;;;;84.05;17.80;;;;;;;24.15;54.91;99460.66;1749508;81;21000;-82
2021/05/17 05:42:40;;;;;;;85.05;16.50;;;;;;;24.55;54.71;99476.67;1749501;81;21001;-82
2021/05/17 05:45:10;;;;;;;89.95;16.37;;;;;;;24.99;55.29;99483.09;1749619;81;21115;-82
2021/05/17 05:47:36;;;;;;;78.83;16.85;;;;;;;25.39;52.68;99480.20;1749360;81;20879;-80
2021/05/17 05:50:03;;;;;;;80.50;15.93;;;;;;;25.55;52.15;99480.19;1749490;80;21094;-79
2021/05/17 05:52:30;;;;;;;77.75;16.12;;;;;;;25.70;51.06;99462.92;1749443;82;20989;-79
2021/05/17 05:55:03;;;;;;;94.83;16.93;;;;;;;25.84;51.00;99451.85;1749554;80;20902;-82
2021/05/17 05:57:26;;;;;;;87.65;16.37;;;;;;;26.12;50.37;99464.53;1748745;82;21027;-80
2021/05/17 05:59:53;;;;;;;90.15;18.12;;;;;;;26.30;48.74;99473.13;1749620;81;20997;-83
2021/05/17 06:02:20;;;;;;;80.62;16.67;;;;;;;26.36;48.20;99469.56;1749441;80;21559;-81
2021/05/17 06:04:47;;;;;;;96.00;17.27;;;;;;;26.52;48.90;99468.95;1749114;80;20902;-81
2021/05/17 06:07:14;;;;;;;84.17;17.75;;;;;;;26.84;48.64;99476.89;1749497;80;21095;-82
2021/05/17 06:09:41;;;;;;;86.65;16.45;;;;;;;27.25;47.78;99473.44;1749323;80;21048;-80
2021/05/17 06:12:09;;;;;;;95.10;17.70;;;;;;;27.71;46.53;99465.70;1749431;82;20906;-80
2021/05/17 06:14:37;;;;;;;104.83;20.97;;;;;;;28.16;46.41;99471.07;1749577;80;21084;-83
2021/05/17 06:17:05;;;;;;;87.62;19.70;;;;;;;28.28;42.98;99468.66;1749524;82;20962;-79
2021/05/17 06:19:33;;;;;;;112.42;20.85;;;;;;;28.29;41.80;99468.13;1749902;80;20981;-80
2021/05/17 06:22:00;;;;;;;105.63;20.68;;;;;;;28.39;42.46;99483.19;1750253;82;20938;-81
2021/05/17 06:24:28;;;;;;;93.65;20.23;;;;;;;28.57;41.70;99496.23;1749968;81;20915;-81
2021/05/17 06:26:56;;;;;;;104.43;18.35;;;;;;;28.87;41.97;99491.47;1750210;82;21071;-80
2021/05/17 06:29:24;;;;;;;96.60;20.57;;;;;;;29.15;41.31;99475.03;1750229;82;20981;-82
2021/05/17 06:31:51;;;;;;;101.15;20.40;;;;;;;29.39;38.56;99489.20;1749664;81;20974;-80
2021/05/17 06:34:18;;;;;;;108.80;20.88;;;;;;;29.49;37.47;99486.69;1750247;82;20926;-81
2021/05/17 06:36:45;;;;;;;100.62;21.10;;;;;;;29.48;37.24;99481.52;1750227;80;20934;-84
2021/05/17 06:39:13;;;;;;;126.42;22.48;;;;;;;29.53;36.40;99477.04;1749469;81;21089;-80
2021/05/17 06:41:42;;;;;;;102.17;20.65;;;;;;;29.61;37.03;99482.55;1749420;81;21598;-80
2021/05/17 06:44:18;;;;;;;103.35;20.27;;;;;;;29.82;37.50;99486.45;1749439;82;20899;-82
2021/05/17 06:46:45;;;;;;;100.40;19.77;;;;;;;30.16;37.33;99491.27;1749581;81;20969;-81
2021/05/17 06:49:13;;;;;;;101.27;21.80;;;;;;;30.49;36.43;99492.30;1749419;82;21027;-83
2021/05/17 06:51:40;;;;;;;99.45;22.25;;;;;;;30.84;35.70;99497.03;1749523;82;21763;-80
2021/05/17 06:54:09;;;;;;;99.00;20.37;;;;;;;31.04;35.23;99505.44;1749410;82;20886;-81
2021/05/17 06:56:56;;;;;;;104.00;19.73;;;;;;;31.21;35.11;99504.52;1749735;82;21089;-83
2021/05/17 06:59:23;;;;;;;103.00;20.23;;;;;;;31.31;34.43;99510.05;1749356;82;21030;-84
2021/05/17 07:01:50;;;;;;;98.17;21.85;;;;;;;31.32;34.39;99501.64;1749395;80;20898;-80
2021/05/17 07:04:17;;;;;;;91.35;21.02;;;;;;;31.35;35.06;99503.86;1741570;80;21072;-80
2021/05/17 07:06:51;;;;;;;100.58;20.30;;;;;;;31.54;34.82;99497.54;1735759;82;20974;-79
2021/05/17 07:12:19;;;;;;;93.15;20.00;;;;;;;31.68;34.99;99512.83;1735452;81;21146;-81
2021/05/17 07:14:34;;;;;;;110.88;20.55;;;;;;;31.48;35.67;99515.37;1730612;82;20863;-85
2021/05/17 07:17:02;;;;;;;95.92;19.87;;;;;;;31.25;35.94;99509.70;1735338;82;21074;-75
2021/05/17 07:19:29;;;;;;;109.63;22.42;;;;;;;30.98;36.88;99509.16;1735382;81;20911;-71
2021/05/17 07:24:41;;;;;;;99.40;23.02;;;;;;;30.20;37.93;99509.73;1735371;82;21002;-71
2021/05/17 07:27:08;;;;;;;98.27;22.10;;;;;;;29.82;39.27;99509.42;1735451;82;21377;-71
2021/05/17 07:29:37;;;;;;;115.08;22.15;;;;;;;29.58;39.43;99515.48;1735320;82;21507;-72
2021/05/17 07:32:08;;;;;;;106.47;21.45;;;;;;;29.33;39.93;99514.52;1735086;81;21030;-71
2021/05/17 07:34:36;;;;;;;117.33;22.60;;;;;;;29.07;40.48;99508.59;1735693;82;20903;-70
2021/05/17 07:37:04;;;;;;;96.85;22.13;;;;;;;28.82;41.66;99506.76;1735354;82;20935;-71
2021/05/17 07:39:31;;;;;;;108.90;21.10;;;;;;;28.64;41.58;99509.09;1735219;81;20986;-73
2021/05/17 07:41:58;;;;;;;103.58;22.07;;;;;;;28.44;42.61;99499.47;1735352;82;20978;-70
2021/05/17 07:44:25;;;;;;;102.42;23.10;;;;;;;28.32;41.97;99497.30;1735306;82;21396;-71
2021/05/17 07:46:52;;;;;;;106.55;20.10;;;;;;;28.27;42.16;99497.20;1735449;81;20943;-72
2021/05/17 07:49:23;;;;;;;96.22;21.52;;;;;;;28.20;42.83;99493.28;1735399;81;21400;-72
2021/05/17 07:51:47;;;;;;;114.03;21.10;;;;;;;28.17;42.92;99496.45;1735109;81;20887;-72
2021/05/17 07:54:18;;;;;;;108.50;21.10;;;;;;;28.38;42.97;99499.59;1735440;81;21543;-72
2021/05/17 07:56:45;;;;;;;99.32;20.55;;;;;;;28.41;42.52;99493.72;1735417;82;21479;-71
2021/05/17 07:59:12;;;;;;;84.55;18.55;;;;;;;28.39;42.77;99491.28;1735531;81;21006;-72
2021/05/17 08:01:40;;;;;;;103.27;18.98;;;;;;;28.35;42.38;99492.80;1735351;82;20930;-70
2021/05/17 08:04:07;;;;;;;96.25;19.10;;;;;;;28.19;42.80;99485.41;1735326;81;20886;-72
2021/05/17 08:06:34;;;;;;;97.35;21.77;;;;;;;28.15;42.92;99485.59;1735410;82;21082;-70
2021/05/17 08:09:01;;;;;;;96.22;18.73;;;;;;;28.11;42.85;99492.00;1735391;82;21552;-72
2021/05/17 08:11:28;;;;;;;89.32;19.15;;;;;;;28.04;43.01;99496.16;1735603;82;20907;-71
2021/05/17 08:13:55;;;;;;;87.35;20.15;;;;;;;28.03;43.03;99495.84;1735377;82;21522;-72
2021/05/17 08:16:23;;;;;;;88.30;21.80;;;;;;;28.09;43.54;99498.96;1735432;81;20958;-71
2021/05/17 08:18:51;;;;;;;88.03;18.60;;;;;;;28.20;43.41;99500.02;1735543;82;21564;-73
2021/05/17 08:21:18;;;;;;;94.50;21.25;;;;;;;28.28;44.02;99496.97;1735491;82;20923;-73
2021/05/17 08:23:45;;;;;;;92.40;21.17;;;;;;;28.41;43.88;99501.27;1735404;82;20926;-71
2021/05/17 08:26:13;;;;;;;99.65;19.42;;;;;;;28.51;43.32;99498.84;1735532;82;21022;-71
2021/05/17 08:28:41;;;;;;;94.00;19.10;;;;;;;28.80;43.39;99500.24;1735456;81;21000;-75
2021/05/17 08:31:11;;;;;;;92.12;19.05;;;;;;;29.05;43.26;99507.20;1735430;81;21408;-73
2021/05/17 08:33:37;;;;;;;99.25;21.20;;;;;;;29.21;42.58;99505.09;1735510;82;20918;-73
2021/05/17 08:36:06;;;;;;;90.15;19.15;;;;;;;29.42;41.91;99505.48;1735433;81;21005;-75
2021/05/17 08:38:33;;;;;;;84.15;19.92;;;;;;;29.44;42.35;99506.88;1735365;82;21598;-75
2021/05/17 08:41:00;;;;;;;92.47;19.42;;;;;;;29.57;42.41;99512.51;1735509;81;20887;-73
2021/05/17 08:43:27;;;;;;;90.32;17.90;;;;;;;29.82;42.65;99507.27;1735406;81;21028;-74
2021/05/17 08:45:56;;;;;;;83.25;18.27;;;;;;;30.22;42.23;99511.66;1735284;82;20963;-72
2021/05/17 08:48:23;;;;;;;94.35;19.45;;;;;;;30.62;42.27;99510.05;1735516;81;21084;-73
2021/05/17 08:50:51;;;;;;;81.55;19.30;;;;;;;31.00;40.17;99500.78;1735292;82;21487;-74
2021/05/17 08:53:18;;;;;;;85.05;18.17;;;;;;;31.27;40.06;99488.59;1735468;82;20935;-73
2021/05/17 08:55:44;;;;;;;63.08;14.45;;;;;;;31.52;39.49;99503.75;1735493;82;21609;-71
2021/05/17 08:58:11;;;;;;;74.85;16.23;;;;;;;31.76;39.41;99489.31;1735250;82;21482;-73
2021/05/17 09:00:38;;;;;;;79.30;16.75;;;;;;;31.92;38.05;99502.45;1735380;82;21026;-72
2021/05/17 09:03:05;;;;;;;66.37;15.90;;;;;;;31.99;38.21;99480.55;1735376;81;20966;-73
2021/05/17 09:05:35;;;;;;;85.32;18.57;;;;;;;32.04;38.26;99485.19;1735517;81;20962;-75
2021/05/17 09:08:02;;;;;;;76.25;17.73;;;;;;;32.09;37.75;99486.60;1735488;82;21079;-74
2021/05/17 09:10:34;;;;;;;81.72;17.95;;;;;;;32.19;37.71;99478.50;1735284;81;21388;-72
2021/05/17 09:13:07;;;;;;;81.22;18.48;;;;;;;32.29;38.42;99479.92;1735526;81;21463;-73
2021/05/17 09:15:51;;;;;;;72.67;17.02;;;;;;;32.50;37.87;99491.69;1735410;81;21498;-72
2021/05/17 09:18:27;;;;;;;76.67;16.67;;;;;;;32.59;37.84;99492.03;1735311;82;21476;-73
2021/05/17 09:20:56;;;;;;;68.47;15.45;;;;;;;32.76;37.42;99491.83;1735413;81;21092;-71
2021/05/17 09:23:34;;;;;;;77.45;18.00;;;;;;;32.87;37.26;99492.14;1735207;82;20990;-72
2021/05/17 09:26:17;;;;;;;74.25;16.07;;;;;;;32.98;37.15;99488.36;1735416;82;20994;-73
2021/05/17 09:28:48;;;;;;;76.62;15.15;;;;;;;33.03;37.04;99495.70;1735624;81;20951;-72
2021/05/17 09:31:22;;;;;;;60.45;14.18;;;;;;;33.02;37.37;99494.90;1735552;82;20927;-72
2021/05/17 09:33:52;;;;;;;61.45;15.55;;;;;;;33.12;37.04;99483.80;1735473;82;21577;-72
2021/05/17 09:36:40;;;;;;;76.53;17.27;;;;;;;33.23;36.98;99485.45;1735054;81;20994;-70
2021/05/17 09:39:17;;;;;;;74.40;17.40;;;;;;;33.32;36.77;99494.70;1735180;82;20922;-70
2021/05/17 09:41:56;;;;;;;61.95;16.00;;;;;;;33.29;36.44;99493.08;1735335;81;20947;-70
2021/05/17 09:44:24;;;;;;;61.75;16.05;;;;;;;33.29;36.88;99488.45;1735157;82;21472;-72
2021/05/17 09:47:13;;;;;;;60.23;15.15;;;;;;;33.28;36.64;99493.60;1735345;82;21054;-71
2021/05/17 09:49:51;;;;;;;59.73;14.90;;;;;;;33.11;36.91;99489.79;1735145;81;21018;-70
2021/05/17 09:52:29;;;;;;;47.78;12.47;;;;;;;33.06;37.65;99490.30;1735286;82;21376;-72
2021/05/17 09:55:01;;;;;;;57.95;11.40;;;;;;;33.24;36.91;99491.98;1735266;82;21501;-71
2021/05/17 09:57:38;;;;;;;55.80;13.00;;;;;;;33.18;37.18;99487.62;1735442;82;21419;-73
2021/05/17 10:00:26;;;;;;;36.75;10.10;;;;;;;33.29;37.29;99493.08;1735383;82;21499;-72
2021/05/17 10:02:57;;;;;;;39.58;10.35;;;;;;;33.47;37.02;99497.98;1735325;82;21478;-71
2021/05/17 10:05:31;;;;;;;46.05;10.82;;;;;;;33.54;36.96;99496.36;1742499;82;20941;-72
2021/05/17 10:08:03;;;;;;;43.85;10.45;;;;;;;33.60;38.16;99500.74;1749459;82;20874;-72
2021/05/17 10:10:31;;;;;;;42.98;10.93;;;;;;;33.74;37.52;99506.45;1749515;82;20934;-72
2021/05/17 10:13:02;;;;;;;36.10;9.40;;;;;;;33.92;37.33;99500.44;1749362;81;21411;-74
2021/05/17 10:15:31;;;;;;;36.98;10.43;;;;;;;33.88;36.98;99510.23;1749366;80;20906;-74
2021/05/17 10:17:59;;;;;;;45.75;11.12;;;;;;;33.75;37.81;99505.34;1749362;80;20891;-75
2021/05/17 10:20:28;;;;;;;40.85;10.32;;;;;;;33.47;37.95;99508.05;1749409;80;20992;-76
2021/05/17 10:22:56;;;;;;;31.23;9.48;;;;;;;33.13;37.76;99518.87;1749267;81;21001;-76
2021/05/17 10:25:27;;;;;;;42.38;10.63;;;;;;;32.72;38.28;99521.95;1749325;82;21656;-75
2021/05/17 10:28:00;;;;;;;33.35;9.80;;;;;;;32.18;39.14;99515.67;1749100;80;20922;-75
2021/05/17 10:30:31;;;;;;;45.85;11.25;;;;;;;31.70;40.21;99519.36;1749586;81;20894;-75
2021/05/17 10:33:01;;;;;;;30.72;10.40;;;;;;;31.44;40.78;99525.08;1749589;80;20906;-73
2021/05/17 10:35:45;;;;;;;32.70;8.78;;;;;;;31.35;41.55;99524.72;1749549;81;20918;-73
2021/05/17 10:41:02;;;;;;;;;;;;;;;31.36;41.40;99525.80;1751927;81;20898;-74
2021/05/17 10:46:51;;;;;;;14.73;5.50;;;;;;;31.33;41.37;99528.22;1749075;82;20977;-74
2021/05/17 10:49:33;;;;;;;15.72;5.10;;;;;;;31.19;40.90;99521.86;1749366;82;20938;-72
2021/05/17 10:52:11;;;;;;;20.60;5.78;;;;;;;30.85;41.81;99528.47;1749424;82;21086;-77
2021/05/17 10:54:41;;;;;;;19.90;7.40;;;;;;;30.33;42.60;99535.11;1749283;82;20867;-74
2021/05/17 10:57:26;;;;;;;16.27;5.90;;;;;;;29.92;43.10;99547.42;1738265;82;20918;-75
2021/05/17 11:02:43;;;;;;;12.13;5.65;;;;;;;29.46;44.46;99550.67;1719582;83;21005;-73
2021/05/17 11:05:19;;;;;;;13.78;6.15;;;;;;;29.05;45.17;99553.09;1715302;82;21487;-71
2021/05/17 11:08:01;;;;;;;10.72;5.03;;;;;;;28.85;46.31;99562.41;1706004;82;20998;-73
2021/05/17 11:10:45;;;;;;;9.53;4.75;;;;;;;28.75;46.71;99555.47;1705875;82;20879;-72
2021/05/17 11:13:17;;;;;;;13.10;6.08;;;;;;;28.68;45.61;99570.44;1706031;84;21025;-73
2021/05/17 11:16:08;;;;;;;10.65;5.35;;;;;;;28.68;45.31;99566.89;1705869;84;21052;-72
2021/05/17 11:18:43;;;;;;;11.68;4.70;;;;;;;28.55;46.28;99559.05;1705846;84;21101;-74
2021/05/17 11:21:21;;;;;;;10.53;4.60;;;;;;;28.42;46.04;99559.57;1705957;82;21399;-73
2021/05/17 11:23:58;;;;;;;9.33;4.10;;;;;;;28.35;46.27;99564.77;1705952;82;20899;-72
2021/05/17 11:26:25;;;;;;;13.93;4.50;;;;;;;28.25;45.61;99560.79;1706057;82;20958;-74
2021/05/17 11:28:55;;;;;;;10.63;4.55;;;;;;;28.10;46.18;99569.86;1706190;82;20903;-72
2021/05/17 11:31:30;;;;;;;12.40;4.47;;;;;;;28.02;45.54;99577.78;1706133;84;21001;-73
2021/05/17 11:34:07;;;;;;;11.30;4.40;;;;;;;27.96;45.97;99580.58;1705998;83;20926;-77
2021/05/17 11:36:54;;;;;;;11.53;4.90;;;;;;;27.85;46.08;99576.80;1706168;82;20859;-77
2021/05/17 11:39:29;;;;;;;11.97;4.28;;;;;;;27.79;46.18;99581.73;1704159;82;21506;-73
2021/05/17 11:42:05;;;;;;;14.40;4.67;;;;;;;27.75;46.56;99575.16;1706330;84;20939;-74
2021/05/17 11:44:54;;;;;;;8.75;4.30;;;;;;;27.74;46.90;99571.64;1706153;82;21057;-73
2021/05/17 11:47:28;;;;;;;10.40;4.05;;;;;;;27.73;46.87;99570.55;1705992;82;21009;-69
2021/05/17 11:49:55;;;;;;;9.55;4.28;;;;;;;27.60;47.22;99573.72;1706148;82;20907;-71
2021/05/17 11:52:28;;;;;;;9.53;3.90;;;;;;;27.54;47.52;99573.28;1706049;84;20978;-72
2021/05/17 11:54:57;;;;;;;12.60;4.03;;;;;;;27.57;46.84;99583.63;1705858;84;21503;-69
2021/05/17 11:57:29;;;;;;;7.30;3.35;;;;;;;27.51;47.07;99580.48;1686569;84;21660;-69